createdAt,value
2022-12-08T15:09:30.528Z,66.79
2022-12-08T15:12:12.748Z,64.15
2022-12-08T15:14:55.313Z,61.21
2022-12-08T15:17:47.841Z,60.27
2022-12-08T15:20:27.580Z,58.99
2022-12-08T15:23:04.523Z,59.63
2022-12-08T15:25:37.688Z,57.63
2022-12-08T15:28:13.051Z,59.11
2022-12-08T15:30:45.030Z,56.98
2022-12-08T15:33:16.710Z,56.34
2022-12-08T15:35:50.204Z,57.57
2022-12-08T15:38:23.892Z,55.90
2022-12-08T15:40:56.471Z,55.37
2022-12-08T15:43:28.465Z,55.59
2022-12-08T15:46:00.597Z,55.11
2022-12-08T15:48:32.549Z,56.48
2022-12-08T15:51:04.255Z,56.39
2022-12-08T15:53:35.768Z,57.80
2022-12-08T15:59:00.325Z,60.95
2022-12-08T16:01:31.867Z,57.62
2022-12-08T16:07:20.177Z,56.30
2022-12-08T16:09:46.940Z,55.99
2022-12-08T16:12:25.079Z,57.05
2022-12-08T16:17:48.411Z,58.05
2022-12-08T16:20:24.263Z,57.90
2022-12-08T16:23:19.433Z,57.41
2022-12-08T16:26:20.375Z,58.72
2022-12-08T16:28:53.808Z,58.11
2022-12-08T16:31:25.827Z,57.71
2022-12-08T16:33:57.521Z,57.38
2022-12-08T16:36:29.049Z,57.79
2022-12-08T16:39:00.572Z,57.66
2022-12-08T16:41:32.143Z,57.39
2022-12-08T16:44:06.116Z,57.37
2022-12-08T16:46:37.644Z,57.05
2022-12-08T16:49:09.774Z,56.80
2022-12-08T16:51:42.451Z,57.79
2022-12-08T16:54:13.978Z,58.08
2022-12-08T16:56:45.594Z,58.70
2022-12-08T16:59:17.116Z,59.17
2022-12-08T17:01:48.742Z,58.73
2022-12-08T17:04:31.346Z,59.01
2022-12-08T17:07:09.787Z,58.46
2022-12-08T17:09:41.325Z,58.73
2022-12-08T17:12:12.855Z,59.15
2022-12-08T17:14:44.462Z,58.35
2022-12-08T17:17:15.992Z,58.88
2022-12-08T17:19:47.532Z,59.36
2022-12-08T17:22:19.155Z,59.48
2022-12-08T17:24:50.695Z,60.08
2022-12-08T17:27:43.607Z,59.38
2022-12-08T17:30:15.349Z,60.90
2022-12-08T17:32:47.026Z,60.46
2022-12-08T17:35:18.671Z,59.77
2022-12-08T17:37:50.273Z,59.93
2022-12-08T17:40:22.885Z,60.41
2022-12-08T17:46:28.501Z,58.89
2022-12-08T17:49:00.057Z,59.61
2022-12-08T17:51:31.560Z,60.05
2022-12-08T17:54:04.938Z,61.54
2022-12-08T17:56:36.484Z,61.10
2022-12-08T17:59:08.014Z,61.51
2022-12-08T18:01:40.569Z,60.73
2022-12-08T18:04:13.155Z,61.72
2022-12-08T18:06:44.646Z,60.71
2022-12-08T18:09:16.500Z,59.86
2022-12-08T18:11:48.097Z,61.45
2022-12-08T18:14:19.762Z,61.48
2022-12-08T18:16:51.394Z,61.66
2022-12-08T18:19:23.092Z,60.88
2022-12-08T18:21:54.722Z,60.70
2022-12-08T18:24:26.313Z,60.58
2022-12-08T18:26:57.979Z,60.00
2022-12-08T18:29:29.634Z,61.00
2022-12-08T18:32:01.266Z,62.95
2022-12-08T18:34:32.861Z,63.31
2022-12-08T18:37:04.430Z,62.86
2022-12-08T18:39:36.417Z,63.04
2022-12-08T18:42:08.411Z,63.41
2022-12-08T18:44:40.403Z,65.28
2022-12-08T18:47:11.932Z,64.66
2022-12-08T18:49:44.103Z,65.29
2022-12-08T18:52:19.017Z,65.17
2022-12-08T18:55:06.324Z,64.46
2022-12-08T18:57:40.519Z,65.02
2022-12-08T19:00:17.732Z,65.08
2022-12-08T19:02:49.397Z,64.46
2022-12-08T19:05:21.187Z,64.16
2022-12-08T19:07:52.713Z,64.62
2022-12-08T19:10:24.941Z,63.87
2022-12-08T19:12:56.469Z,64.11
2022-12-08T19:15:28.102Z,63.50
2022-12-08T19:18:00.539Z,64.00
2022-12-08T19:20:32.051Z,63.60
2022-12-08T19:23:03.594Z,64.14
2022-12-08T19:25:35.111Z,63.99
2022-12-08T19:28:07.569Z,64.37
2022-12-08T19:30:39.195Z,63.88
2022-12-08T19:33:10.857Z,63.85
2022-12-08T19:35:46.209Z,64.65
2022-12-08T19:38:20.664Z,64.35
2022-12-08T19:40:52.234Z,64.38
2022-12-08T19:43:23.741Z,64.20
2022-12-08T19:45:55.586Z,65.10
2022-12-08T19:48:27.323Z,64.36
2022-12-08T19:50:59.099Z,66.08
2022-12-08T19:53:30.683Z,65.72
2022-12-08T19:56:02.567Z,64.89
2022-12-08T19:58:34.777Z,65.38
2022-12-08T20:01:07.282Z,64.35
2022-12-08T20:03:38.914Z,65.08
2022-12-08T20:06:18.178Z,65.52
2022-12-08T20:08:50.986Z,64.23
2022-12-08T20:11:22.938Z,65.34
2022-12-08T20:13:54.471Z,67.63
2022-12-08T20:16:26.148Z,66.94
2022-12-08T20:18:57.830Z,67.35
2022-12-08T20:21:30.035Z,66.60
2022-12-08T20:24:01.591Z,65.81
2022-12-08T20:26:33.328Z,66.19
2022-12-08T20:29:05.019Z,66.59
2022-12-08T20:31:36.613Z,65.79
2022-12-08T20:34:17.565Z,64.52
2022-12-08T20:36:49.284Z,65.49
2022-12-08T20:39:20.945Z,67.24
2022-12-08T20:41:52.926Z,66.30
2022-12-08T20:44:24.506Z,63.82
2022-12-08T20:46:57.176Z,64.52
2022-12-08T20:49:34.363Z,65.55
2022-12-08T20:52:06.713Z,64.40
2022-12-08T20:54:38.614Z,63.68
2022-12-08T20:57:10.815Z,64.16
2022-12-08T20:59:43.037Z,63.39
2022-12-08T21:02:17.504Z,63.00
2022-12-08T21:04:49.679Z,62.63
2022-12-08T21:07:21.372Z,63.79
2022-12-08T21:09:53.127Z,63.03
2022-12-08T21:12:24.800Z,64.15
2022-12-08T21:14:56.505Z,64.77
2022-12-08T21:17:28.218Z,64.20
2022-12-08T21:19:59.900Z,64.91
2022-12-08T21:22:31.526Z,63.61
2022-12-08T21:25:03.304Z,63.54
2022-12-08T21:27:37.228Z,63.58
2022-12-08T21:30:10.702Z,63.51
2022-12-08T21:32:42.991Z,64.62
2022-12-08T21:35:14.892Z,64.62
2022-12-08T21:37:46.829Z,64.14
2022-12-08T21:40:18.605Z,65.23
2022-12-08T21:42:51.128Z,64.93
2022-12-08T21:45:22.682Z,65.21
2022-12-08T21:47:54.526Z,65.61
2022-12-08T21:50:26.371Z,65.39
2022-12-08T21:52:58.036Z,66.52
2022-12-08T21:55:29.650Z,67.13
2022-12-08T21:58:04.042Z,67.23
2022-12-08T22:00:35.801Z,67.67
2022-12-08T22:03:13.695Z,68.13
2022-12-08T22:05:45.770Z,69.20
2022-12-08T22:08:17.361Z,68.86
2022-12-08T22:10:49.053Z,68.52
2022-12-08T22:13:20.579Z,68.75
2022-12-08T22:16:01.544Z,68.19
2022-12-08T22:18:34.761Z,68.65
2022-12-08T22:21:15.890Z,67.45
2022-12-08T22:23:47.510Z,68.87
2022-12-08T22:26:19.303Z,68.18
2022-12-08T22:28:50.846Z,68.97
2022-12-08T22:31:22.734Z,68.84
2022-12-08T22:33:54.567Z,67.98
2022-12-08T22:36:27.461Z,68.31
2022-12-08T22:38:59.001Z,69.18
2022-12-08T22:41:30.599Z,69.02
2022-12-08T22:44:06.085Z,69.10
2022-12-08T22:46:37.712Z,67.61
2022-12-08T22:49:09.458Z,67.46
2022-12-08T22:51:41.205Z,67.74
2022-12-08T22:54:12.860Z,67.53
2022-12-08T22:56:44.700Z,66.98
2022-12-08T22:59:16.338Z,68.08
2022-12-08T23:01:47.927Z,68.95
2022-12-08T23:04:19.593Z,69.57
2022-12-08T23:06:51.270Z,69.13
2022-12-08T23:09:23.037Z,69.31
2022-12-08T23:11:55.487Z,71.06
2022-12-08T23:14:27.294Z,70.39
2022-12-08T23:16:59.126Z,70.99
2022-12-08T23:19:30.748Z,71.34
2022-12-08T23:22:02.341Z,71.47
2022-12-08T23:24:33.962Z,72.62
2022-12-08T23:27:05.618Z,73.72
2022-12-08T23:29:37.538Z,73.11
2022-12-08T23:32:09.631Z,71.59
2022-12-08T23:34:41.342Z,72.18
2022-12-08T23:37:13.042Z,72.08
2022-12-08T23:39:44.677Z,72.75
2022-12-08T23:42:16.184Z,74.14
2022-12-08T23:44:47.733Z,72.00
2022-12-08T23:47:19.336Z,71.05
2022-12-08T23:49:51.122Z,73.38
2022-12-08T23:52:22.696Z,73.55
2022-12-08T23:54:54.604Z,73.12
2022-12-08T23:57:26.360Z,73.99
2022-12-08T23:59:58.040Z,72.10
